createdAt,value
2023-02-06T00:00:54.138Z,5.02
2023-02-06T00:03:20.754Z,4.94
2023-02-06T00:05:58.756Z,4.94
2023-02-06T00:08:26.868Z,4.88
2023-02-06T00:10:54.077Z,4.88
2023-02-06T00:13:20.864Z,4.85
2023-02-06T00:15:47.415Z,4.92
2023-02-06T00:18:13.860Z,4.89
2023-02-06T00:20:40.365Z,4.82
2023-02-06T00:23:06.729Z,4.81
2023-02-06T00:25:33.222Z,4.84
2023-02-06T00:27:59.805Z,4.82
2023-02-06T00:30:26.474Z,4.79
2023-02-06T00:32:52.943Z,4.83
2023-02-06T00:35:19.640Z,4.79
2023-02-06T00:37:46.014Z,4.79
2023-02-06T00:40:12.365Z,4.76
2023-02-06T00:42:38.877Z,4.65
2023-02-06T00:45:05.906Z,4.61
2023-02-06T00:47:32.343Z,4.64
2023-02-06T00:49:58.825Z,4.67
2023-02-06T00:52:25.202Z,4.69
2023-02-06T00:54:51.654Z,4.68
2023-02-06T00:57:18.195Z,4.68
2023-02-06T00:59:44.575Z,4.64
2023-02-06T01:02:11.054Z,4.52
2023-02-06T01:04:37.531Z,4.49
2023-02-06T01:07:03.908Z,4.53
2023-02-06T01:09:30.475Z,4.57
2023-02-06T01:11:57.062Z,4.49
2023-02-06T01:14:23.680Z,4.32
2023-02-06T01:16:50.041Z,4.20
2023-02-06T01:19:16.704Z,4.21
2023-02-06T01:21:43.095Z,4.21
2023-02-06T01:24:09.478Z,4.22
2023-02-06T01:26:35.953Z,4.26
2023-02-06T01:29:03.159Z,4.17
2023-02-06T01:31:30.286Z,4.03
2023-02-06T01:33:59.301Z,4.02
2023-02-06T01:36:26.260Z,4.00
2023-02-06T01:38:52.929Z,3.99
2023-02-06T01:41:22.813Z,3.96
2023-02-06T01:44:11.169Z,3.97
2023-02-06T01:46:39.157Z,3.92
2023-02-06T01:49:08.672Z,3.87
2023-02-06T01:51:35.670Z,3.90
2023-02-06T01:54:05.318Z,3.88
2023-02-06T01:56:37.101Z,3.77
2023-02-06T01:59:05.261Z,3.73
2023-02-06T02:01:33.487Z,3.65
2023-02-06T02:04:07.213Z,3.60
2023-02-06T02:06:35.155Z,3.58
2023-02-06T02:09:03.689Z,3.54
2023-02-06T02:11:36.671Z,3.52
2023-02-06T02:14:06.307Z,3.43
2023-02-06T02:16:38.996Z,3.40
2023-02-06T02:19:40.267Z,3.48
2023-02-06T02:22:31.357Z,3.59
2023-02-06T02:25:35.563Z,3.61
2023-02-06T02:28:39.323Z,3.63
2023-02-06T02:31:38.908Z,3.63
2023-02-06T02:34:32.953Z,3.57
2023-02-06T02:37:33.575Z,3.59
2023-02-06T02:40:28.439Z,3.60
2023-02-06T02:43:04.642Z,3.59
2023-02-06T02:45:50.628Z,3.60
2023-02-06T02:48:24.296Z,3.57
2023-02-06T02:50:54.183Z,3.56
2023-02-06T02:53:21.188Z,3.57
2023-02-06T02:55:48.001Z,3.55
2023-02-06T02:58:18.242Z,3.56
2023-02-06T03:00:58.651Z,3.54
2023-02-06T03:03:28.967Z,3.50
2023-02-06T03:06:13.570Z,3.51
2023-02-06T03:08:58.542Z,3.52
2023-02-06T03:11:25.305Z,3.50
2023-02-06T03:14:06.240Z,3.51
2023-02-06T03:16:45.378Z,3.53
2023-02-06T03:19:14.494Z,3.50
2023-02-06T03:21:42.788Z,3.46
2023-02-06T03:24:14.457Z,3.43
2023-02-06T03:26:43.356Z,3.44
2023-02-06T03:29:12.952Z,3.38
2023-02-06T03:31:46.362Z,3.38
2023-02-06T03:34:16.790Z,3.35
2023-02-06T03:36:43.644Z,3.32
2023-02-06T03:39:10.153Z,3.25
2023-02-06T03:41:38.930Z,3.25
2023-02-06T03:44:09.282Z,3.27
2023-02-06T03:46:38.527Z,3.23
2023-02-06T03:49:07.972Z,3.23
2023-02-06T03:51:46.568Z,3.21
2023-02-06T03:54:16.896Z,3.20
2023-02-06T03:56:48.695Z,3.19
2023-02-06T03:59:15.218Z,3.23
2023-02-06T04:01:49.220Z,3.21
2023-02-06T04:04:18.249Z,3.13
2023-02-06T04:06:44.912Z,3.11
2023-02-06T04:09:11.720Z,3.09
2023-02-06T04:11:38.450Z,3.01
2023-02-06T04:14:04.878Z,3.02
2023-02-06T04:16:31.293Z,2.98
2023-02-06T04:18:57.808Z,3.01
2023-02-06T04:21:24.274Z,2.92
2023-02-06T04:23:50.668Z,2.87
2023-02-06T04:26:17.158Z,2.77
2023-02-06T04:28:43.618Z,2.73
2023-02-06T04:31:10.140Z,2.75
2023-02-06T04:33:36.553Z,2.77
2023-02-06T04:36:03.082Z,2.72
2023-02-06T04:38:29.438Z,2.56
2023-02-06T04:40:55.796Z,2.53
2023-02-06T04:43:22.315Z,2.52
2023-02-06T04:45:48.695Z,2.50
2023-02-06T04:48:15.156Z,2.31
2023-02-06T04:50:41.595Z,2.25
2023-02-06T04:53:07.986Z,2.34
2023-02-06T04:55:35.633Z,2.30
2023-02-06T04:58:02.247Z,2.23
2023-02-06T05:00:28.608Z,2.18
2023-02-06T05:02:55.058Z,2.10
2023-02-06T05:05:21.516Z,2.16
2023-02-06T05:07:48.091Z,2.13
2023-02-06T05:10:14.982Z,2.05
2023-02-06T05:12:41.529Z,2.06
2023-02-06T05:15:08.822Z,2.03
2023-02-06T05:17:35.533Z,2.07
2023-02-06T05:20:02.013Z,2.11
2023-02-06T05:22:28.419Z,2.10
2023-02-06T05:24:54.878Z,2.13
2023-02-06T05:27:21.736Z,2.06
2023-02-06T05:29:48.162Z,2.06
2023-02-06T05:32:14.614Z,2.05
2023-02-06T05:34:41.118Z,2.09
2023-02-06T05:37:07.723Z,2.13
2023-02-06T05:39:34.153Z,2.16
2023-02-06T05:42:00.709Z,2.25
2023-02-06T05:44:27.345Z,2.24
2023-02-06T05:46:54.003Z,2.31
2023-02-06T05:49:20.556Z,2.35
2023-02-06T05:51:46.916Z,2.35
2023-02-06T05:54:15.292Z,2.37
2023-02-06T05:56:41.844Z,2.37
2023-02-06T05:59:08.334Z,2.56
2023-02-06T06:01:34.696Z,2.68
2023-02-06T06:04:01.485Z,2.73
2023-02-06T06:06:28.055Z,2.67
2023-02-06T06:08:54.575Z,2.54
2023-02-06T06:11:21.924Z,2.50
2023-02-06T06:13:48.246Z,2.61
2023-02-06T06:16:14.706Z,2.60
2023-02-06T06:18:41.316Z,2.54
2023-02-06T06:21:08.220Z,2.58
2023-02-06T06:23:34.607Z,2.68
2023-02-06T06:26:01.037Z,2.66
2023-02-06T06:28:27.434Z,2.54
2023-02-06T06:31:02.080Z,2.61
2023-02-06T06:33:29.105Z,2.65
2023-02-06T06:35:55.711Z,2.64
2023-02-06T06:38:22.106Z,2.62
2023-02-06T06:40:48.570Z,2.67
2023-02-06T06:43:14.981Z,2.54
2023-02-06T06:45:41.429Z,2.55
2023-02-06T06:48:07.836Z,2.55
2023-02-06T06:50:34.263Z,2.69
2023-02-06T06:53:00.817Z,2.61
2023-02-06T06:55:27.324Z,2.64
2023-02-06T06:57:53.751Z,2.75
2023-02-06T07:00:20.372Z,2.75
2023-02-06T07:02:47.078Z,2.86
2023-02-06T07:05:13.679Z,2.89
2023-02-06T07:07:40.117Z,2.90
2023-02-06T07:10:08.559Z,2.95
2023-02-06T07:12:35.500Z,2.94
2023-02-06T07:15:02.252Z,3.00
2023-02-06T07:17:28.610Z,3.03
2023-02-06T07:19:54.976Z,3.06
2023-02-06T07:22:22.082Z,2.88
2023-02-06T07:24:48.884Z,2.84
2023-02-06T07:27:15.279Z,2.94
2023-02-06T07:29:41.749Z,2.92
2023-02-06T07:32:08.217Z,2.95
2023-02-06T07:34:35.779Z,2.84
2023-02-06T07:37:02.970Z,2.96
2023-02-06T07:39:29.367Z,3.02
2023-02-06T07:41:55.708Z,3.12
2023-02-06T07:44:22.110Z,3.27
2023-02-06T07:46:48.481Z,3.23
2023-02-06T07:49:15.443Z,3.24
2023-02-06T07:51:44.011Z,3.29
2023-02-06T07:54:11.812Z,3.35
2023-02-06T07:56:39.248Z,3.38
2023-02-06T07:59:07.488Z,3.48
2023-02-06T08:01:33.927Z,3.58
2023-02-06T08:04:00.339Z,3.68
2023-02-06T08:06:26.996Z,3.74
2023-02-06T08:08:57.024Z,3.91
2023-02-06T08:11:25.981Z,3.96
2023-02-06T08:13:52.543Z,3.95
2023-02-06T08:16:20.896Z,4.07
2023-02-06T08:18:47.572Z,4.07
2023-02-06T08:21:18.841Z,4.14
2023-02-06T08:23:45.460Z,4.21
2023-02-06T08:26:15.538Z,4.25
2023-02-06T08:28:43.829Z,4.27
2023-02-06T08:31:38.400Z,4.24
2023-02-06T08:34:06.434Z,4.30
2023-02-06T08:36:33.405Z,4.35
2023-02-06T08:39:01.771Z,4.42
2023-02-06T08:41:30.942Z,4.37
2023-02-06T08:43:59.203Z,4.41
2023-02-06T08:46:28.490Z,4.52
2023-02-06T08:49:02.974Z,4.55
2023-02-06T08:51:29.543Z,4.65
2023-02-06T08:53:57.623Z,4.61
2023-02-06T08:56:24.626Z,4.67
2023-02-06T08:58:51.535Z,4.69
2023-02-06T09:01:18.180Z,4.69
2023-02-06T09:03:45.382Z,4.74
2023-02-06T09:06:13.048Z,4.73
2023-02-06T09:08:40.402Z,4.79
2023-02-06T09:11:18.387Z,4.79
2023-02-06T09:13:49.570Z,4.80
2023-02-06T09:16:18.327Z,4.84
2023-02-06T09:18:45.205Z,4.87
2023-02-06T09:21:21.045Z,4.82
2023-02-06T09:23:50.247Z,4.69
2023-02-06T09:26:19.894Z,4.66
2023-02-06T09:28:46.896Z,4.69
2023-02-06T09:31:13.502Z,4.76
2023-02-06T09:33:40.471Z,4.83
2023-02-06T09:36:13.919Z,4.85
2023-02-06T09:38:42.834Z,4.83
2023-02-06T09:41:30.083Z,4.87
2023-02-06T09:44:04.129Z,4.94
2023-02-06T09:46:33.950Z,4.96
2023-02-06T09:49:06.863Z,4.99
2023-02-06T09:52:15.186Z,5.04
2023-02-06T09:55:06.561Z,5.09
2023-02-06T09:57:39.148Z,5.18
2023-02-06T10:00:24.803Z,5.17
2023-02-06T10:03:23.685Z,5.24
2023-02-06T10:06:12.560Z,5.47
2023-02-06T10:09:02.089Z,5.65
2023-02-06T10:11:51.288Z,5.69
2023-02-06T10:14:32.904Z,5.79
2023-02-06T10:17:26.006Z,5.90
2023-02-06T10:20:18.484Z,5.97
2023-02-06T10:22:54.404Z,6.09
2023-02-06T10:25:37.771Z,6.15
2023-02-06T10:28:27.185Z,6.19
2023-02-06T10:31:19.957Z,6.20
2023-02-06T10:33:57.716Z,6.28
2023-02-06T10:36:52.211Z,6.33
2023-02-06T10:39:49.147Z,6.44
2023-02-06T10:42:32.210Z,6.60
2023-02-06T10:45:24.687Z,6.80
2023-02-06T10:47:59.491Z,7.03
2023-02-06T10:50:28.864Z,7.17
2023-02-06T10:52:58.483Z,7.05
2023-02-06T10:55:28.218Z,7.14
2023-02-06T10:58:12.925Z,7.12
2023-02-06T11:00:40.418Z,6.91
2023-02-06T11:03:15.655Z,6.82
2023-02-06T11:05:42.099Z,6.71
2023-02-06T11:08:16.958Z,6.72
2023-02-06T11:10:43.499Z,6.85
2023-02-06T11:13:14.667Z,7.05
2023-02-06T11:15:52.854Z,7.14
2023-02-06T11:18:24.059Z,7.17
2023-02-06T11:20:51.409Z,7.03
2023-02-06T11:23:22.954Z,6.87
2023-02-06T11:26:06.048Z,6.75
2023-02-06T11:28:34.686Z,6.80
2023-02-06T11:31:07.482Z,6.89
2023-02-06T11:33:46.452Z,6.83
2023-02-06T11:36:28.091Z,6.88
2023-02-06T11:39:02.059Z,7.00
2023-02-06T11:41:30.323Z,6.92
2023-02-06T11:44:02.626Z,6.84
2023-02-06T11:46:32.513Z,6.76
2023-02-06T11:49:23.035Z,6.81
2023-02-06T11:51:51.755Z,6.79
2023-02-06T11:54:35.510Z,6.83
2023-02-06T11:57:08.005Z,6.87
2023-02-06T11:59:37.251Z,6.84
2023-02-06T12:02:30.192Z,7.09
2023-02-06T12:05:13.454Z,7.39
2023-02-06T12:07:46.047Z,7.47
2023-02-06T12:10:20.777Z,7.31
2023-02-06T12:12:54.094Z,7.13
2023-02-06T12:15:45.297Z,7.19
2023-02-06T12:18:17.408Z,7.26
2023-02-06T12:21:06.650Z,7.26
2023-02-06T12:24:05.247Z,7.45
2023-02-06T12:26:34.879Z,7.63
2023-02-06T12:29:08.119Z,7.80
2023-02-06T12:31:50.617Z,7.75
2023-02-06T12:34:22.078Z,7.97
2023-02-06T12:37:10.791Z,8.01
2023-02-06T12:39:37.328Z,7.91
2023-02-06T12:42:31.978Z,8.10
2023-02-06T12:45:32.399Z,8.30
2023-02-06T12:48:12.294Z,8.32
2023-02-06T12:50:46.502Z,8.66
2023-02-06T12:53:20.423Z,8.54
2023-02-06T12:56:04.560Z,8.37
2023-02-06T12:58:58.739Z,8.26
2023-02-06T13:01:47.017Z,8.08
2023-02-06T13:04:18.754Z,8.01
2023-02-06T13:07:09.262Z,7.86
2023-02-06T13:09:46.660Z,7.78
2023-02-06T13:12:21.726Z,7.70
2023-02-06T13:14:53.466Z,7.63
2023-02-06T13:17:32.576Z,7.59
2023-02-06T13:20:08.932Z,7.57
2023-02-06T13:22:38.596Z,7.50
2023-02-06T13:25:30.108Z,7.46
2023-02-06T13:28:01.852Z,7.41
2023-02-06T13:30:31.547Z,7.38
2023-02-06T13:33:10.802Z,7.37
2023-02-06T13:35:55.196Z,7.30
2023-02-06T13:38:24.342Z,7.27
2023-02-06T13:41:12.682Z,7.22
2023-02-06T13:43:56.093Z,7.18
2023-02-06T13:46:33.400Z,7.14
2023-02-06T13:49:22.178Z,7.13
2023-02-06T13:52:15.643Z,7.14
2023-02-06T13:54:55.370Z,7.28
2023-02-06T13:57:49.586Z,7.38
2023-02-06T14:00:22.308Z,7.54
2023-02-06T14:02:56.438Z,7.60
2023-02-06T14:05:30.810Z,7.74
2023-02-06T14:08:18.820Z,7.86
2023-02-06T14:11:04.918Z,7.93
2023-02-06T14:13:44.127Z,8.42
2023-02-06T14:16:35.287Z,8.62
2023-02-06T14:19:25.661Z,8.78
2023-02-06T14:21:56.784Z,9.45
2023-02-06T14:24:38.161Z,10.28
2023-02-06T14:27:23.527Z,10.93
2023-02-06T14:30:18.412Z,11.36
2023-02-06T14:32:54.226Z,11.15
2023-02-06T14:36:02.934Z,10.44
2023-02-06T14:39:02.170Z,10.06
2023-02-06T14:41:31.609Z,9.89
2023-02-06T14:43:59.486Z,9.76
2023-02-06T14:46:27.325Z,9.05
2023-02-06T14:48:57.252Z,8.58
2023-02-06T14:51:31.083Z,8.14
2023-02-06T14:54:04.121Z,7.87
2023-02-06T14:56:33.797Z,7.68
2023-02-06T14:59:12.391Z,7.68
2023-02-06T15:01:40.079Z,7.66
2023-02-06T15:04:15.859Z,7.54
2023-02-06T15:07:03.048Z,7.45
2023-02-06T15:09:31.556Z,7.34
2023-02-06T15:12:01.137Z,7.32
2023-02-06T15:14:34.270Z,7.31
2023-02-06T15:17:02.676Z,7.31
2023-02-06T15:19:35.591Z,7.27
2023-02-06T15:22:13.036Z,7.24
2023-02-06T15:25:04.854Z,7.21
2023-02-06T15:27:34.169Z,7.17
2023-02-06T15:30:02.336Z,7.12
2023-02-06T15:32:38.826Z,7.06
2023-02-06T15:35:19.918Z,7.06
2023-02-06T15:37:46.562Z,7.05
2023-02-06T15:40:20.872Z,7.07
2023-02-06T15:42:48.718Z,7.13
2023-02-06T15:45:22.464Z,7.09
2023-02-06T15:47:51.445Z,7.05
2023-02-06T15:50:25.187Z,6.90
2023-02-06T15:52:51.782Z,6.95
2023-02-06T15:55:37.745Z,6.98
2023-02-06T15:58:05.323Z,7.09
2023-02-06T16:00:36.973Z,7.12
2023-02-06T16:03:07.750Z,7.06
2023-02-06T16:05:37.965Z,7.09
2023-02-06T16:08:05.281Z,7.13
2023-02-06T16:10:37.615Z,7.13
2023-02-06T16:13:11.002Z,7.20
2023-02-06T16:15:39.698Z,7.11
2023-02-06T16:18:24.562Z,7.13
2023-02-06T16:20:51.269Z,7.16
2023-02-06T16:23:23.852Z,7.24
2023-02-06T16:26:12.923Z,7.26
2023-02-06T16:29:02.014Z,7.22
2023-02-06T16:31:30.908Z,7.14
2023-02-06T16:34:03.282Z,7.18
2023-02-06T16:36:32.342Z,7.17
2023-02-06T16:39:03.979Z,7.16
2023-02-06T16:41:34.694Z,7.17
2023-02-06T16:44:02.444Z,7.21
2023-02-06T16:46:29.380Z,7.15
2023-02-06T16:48:56.530Z,7.19
2023-02-06T16:51:25.929Z,7.11
2023-02-06T16:53:52.990Z,7.14
2023-02-06T16:56:21.659Z,7.13
2023-02-06T16:58:48.451Z,6.94
2023-02-06T17:01:25.283Z,6.88
2023-02-06T17:03:52.698Z,6.95
2023-02-06T17:06:23.623Z,7.07
2023-02-06T17:08:52.000Z,7.10
2023-02-06T17:11:18.565Z,7.14
2023-02-06T17:13:45.235Z,7.11
2023-02-06T17:16:17.573Z,7.08
2023-02-06T17:18:44.503Z,7.12
2023-02-06T17:21:20.847Z,7.17
2023-02-06T17:23:49.306Z,7.13
2023-02-06T17:26:21.832Z,7.09
2023-02-06T17:28:48.845Z,7.05
2023-02-06T17:31:15.860Z,7.04
2023-02-06T17:33:42.340Z,7.02
2023-02-06T17:36:16.778Z,7.01
2023-02-06T17:38:43.709Z,6.98
2023-02-06T17:41:10.303Z,6.94
2023-02-06T17:43:37.549Z,7.04
2023-02-06T17:46:05.122Z,7.04
2023-02-06T17:48:36.407Z,7.00
2023-02-06T17:51:04.377Z,6.83
2023-02-06T17:53:30.952Z,6.62
2023-02-06T17:55:57.357Z,6.67
2023-02-06T17:58:23.846Z,6.52
2023-02-06T18:00:50.408Z,6.40
2023-02-06T18:03:18.273Z,6.25
2023-02-06T18:05:47.039Z,6.18
2023-02-06T18:08:13.609Z,6.12
2023-02-06T18:10:39.979Z,6.09
2023-02-06T18:13:06.582Z,6.04
2023-02-06T18:15:33.112Z,6.09
2023-02-06T18:18:00.114Z,6.20
2023-02-06T18:20:26.611Z,6.17
2023-02-06T18:22:53.239Z,6.06
2023-02-06T18:25:19.679Z,6.00
2023-02-06T18:27:46.320Z,6.00
2023-02-06T18:30:14.592Z,5.95
2023-02-06T18:32:41.416Z,5.92
2023-02-06T18:35:09.331Z,5.86
2023-02-06T18:37:35.858Z,5.89
2023-02-06T18:40:02.766Z,5.55
2023-02-06T18:42:48.024Z,5.65
2023-02-06T18:45:14.496Z,5.51
2023-02-06T18:47:42.357Z,5.40
2023-02-06T18:50:10.761Z,5.46
2023-02-06T18:52:37.244Z,5.42
2023-02-06T18:55:04.534Z,5.39
2023-02-06T18:57:31.068Z,5.29
2023-02-06T18:59:58.748Z,5.20
2023-02-06T19:02:25.729Z,5.27
2023-02-06T19:04:52.301Z,5.33
2023-02-06T19:07:18.788Z,5.25
2023-02-06T19:09:45.220Z,5.24
2023-02-06T19:12:11.751Z,5.20
2023-02-06T19:14:39.847Z,5.06
2023-02-06T19:17:06.253Z,5.10
2023-02-06T19:19:32.779Z,5.01
2023-02-06T19:21:59.214Z,5.05
2023-02-06T19:24:27.738Z,4.97
2023-02-06T19:26:54.271Z,5.00
2023-02-06T19:29:34.428Z,4.95
2023-02-06T19:32:03.616Z,4.87
2023-02-06T19:34:30.276Z,4.84
2023-02-06T19:36:56.770Z,4.82
2023-02-06T19:39:23.152Z,4.79
2023-02-06T19:41:49.529Z,4.82
2023-02-06T19:44:16.106Z,4.82
2023-02-06T19:46:42.487Z,4.81
2023-02-06T19:49:11.135Z,4.82
2023-02-06T19:51:41.756Z,4.79
2023-02-06T19:54:08.385Z,4.77
2023-02-06T19:56:39.320Z,4.82
2023-02-06T19:59:19.451Z,4.80
2023-02-06T20:01:54.546Z,4.84
2023-02-06T20:04:23.908Z,4.73
2023-02-06T20:06:51.104Z,4.75
2023-02-06T20:09:19.507Z,4.65
2023-02-06T20:11:46.159Z,4.53
2023-02-06T20:14:12.742Z,4.43
2023-02-06T20:16:41.400Z,4.39
2023-02-06T20:19:13.986Z,4.29
2023-02-06T20:21:43.279Z,4.22
2023-02-06T20:24:13.435Z,4.16
2023-02-06T20:26:42.069Z,4.07
2023-02-06T20:29:15.971Z,3.86
2023-02-06T20:31:42.499Z,3.78
2023-02-06T20:34:09.128Z,3.81
2023-02-06T20:36:35.502Z,3.73
2023-02-06T20:39:02.291Z,3.77
2023-02-06T20:41:31.353Z,3.76
2023-02-06T20:43:59.456Z,3.70
2023-02-06T20:46:29.567Z,3.70
2023-02-06T20:48:58.650Z,3.51
2023-02-06T20:51:26.001Z,3.40
2023-02-06T20:53:53.457Z,3.44
2023-02-06T20:56:20.957Z,3.43
2023-02-06T20:58:49.305Z,3.45
2023-02-06T21:01:18.195Z,3.42
2023-02-06T21:03:46.381Z,3.38
2023-02-06T21:06:13.968Z,3.06
2023-02-06T21:08:41.458Z,3.10
2023-02-06T21:11:08.758Z,3.19
2023-02-06T21:13:35.296Z,3.20
2023-02-06T21:16:02.355Z,3.11
2023-02-06T21:18:31.011Z,3.05
2023-02-06T21:21:06.537Z,3.04
2023-02-06T21:23:33.375Z,2.96
2023-02-06T21:25:59.766Z,2.89
2023-02-06T21:28:26.386Z,2.88
2023-02-06T21:31:00.330Z,2.79
2023-02-06T21:33:26.926Z,2.73
2023-02-06T21:35:53.513Z,2.80
2023-02-06T21:38:20.770Z,2.82
2023-02-06T21:40:47.305Z,2.80
2023-02-06T21:43:15.172Z,2.94
2023-02-06T21:45:44.102Z,2.85
2023-02-06T21:48:10.476Z,2.74
2023-02-06T21:50:38.303Z,2.71
2023-02-06T21:53:05.227Z,2.80
2023-02-06T21:55:32.482Z,2.88
2023-02-06T21:58:00.979Z,2.96
2023-02-06T22:00:28.537Z,3.09
2023-02-06T22:02:55.019Z,3.00
2023-02-06T22:05:21.465Z,3.10
2023-02-06T22:07:47.997Z,3.18
2023-02-06T22:10:14.856Z,3.21
2023-02-06T22:12:41.208Z,3.18
2023-02-06T22:15:08.151Z,3.13
2023-02-06T22:17:34.933Z,3.01
2023-02-06T22:20:01.312Z,2.95
2023-02-06T22:22:27.675Z,2.80
2023-02-06T22:24:54.124Z,2.77
2023-02-06T22:27:20.554Z,2.72
2023-02-06T22:29:47.083Z,2.70
2023-02-06T22:32:13.620Z,2.60
2023-02-06T22:34:40.019Z,2.58
2023-02-06T22:37:06.464Z,2.50
2023-02-06T22:39:32.994Z,2.45
2023-02-06T22:41:59.432Z,2.39
2023-02-06T22:44:25.956Z,2.35
2023-02-06T22:46:53.187Z,2.19
2023-02-06T22:49:21.103Z,2.26
2023-02-06T22:51:47.577Z,2.23
2023-02-06T22:54:14.543Z,2.17
2023-02-06T22:56:42.461Z,2.25
2023-02-06T22:59:19.273Z,2.22
2023-02-06T23:01:51.262Z,2.19
2023-02-06T23:04:20.734Z,2.26
2023-02-06T23:06:47.838Z,2.26
2023-02-06T23:09:17.643Z,2.36
2023-02-06T23:11:44.405Z,2.30
2023-02-06T23:14:12.819Z,2.27
2023-02-06T23:16:39.415Z,2.09
2023-02-06T23:19:07.119Z,2.05
2023-02-06T23:21:36.970Z,2.07
2023-02-06T23:24:05.210Z,2.02
2023-02-06T23:26:32.415Z,2.09
2023-02-06T23:29:01.054Z,2.04
2023-02-06T23:31:28.154Z,2.11
2023-02-06T23:33:55.085Z,1.94
2023-02-06T23:36:24.434Z,1.83
2023-02-06T23:38:51.980Z,1.83
2023-02-06T23:41:24.792Z,1.97
2023-02-06T23:43:57.381Z,1.86
2023-02-06T23:46:24.625Z,1.72
2023-02-06T23:48:51.693Z,1.75
2023-02-06T23:51:19.178Z,1.88
2023-02-06T23:53:45.684Z,2.00
2023-02-06T23:56:14.147Z,2.07
2023-02-06T23:58:40.794Z,1.98
